Time;durP1;ratioP1;P1;durP2;ratioP2;P2;SDS_P1;SDS_P2;PMS_P1;PMS_P2;Temp;Humidity;BMP_temperature;BMP_pressure;BME280_temperature;BME280_humidity;BME280_pressure;Samples;Min_cycle;Max_cycle;Signal;HPM_P1;HPM_P2
2021/12/13 00:01:17;;;;;;;39.35;17.17;;;9.70;99.90;;;;;;5037118;28;20132;-73
2021/12/13 00:03:50;;;;;;;32.65;15.70;;;9.70;99.90;;;;;;5034348;28;20503;-72
2021/12/13 00:06:24;;;;;;;47.50;18.05;;;9.70;99.90;;;;;;5016533;28;20053;-75
2021/12/13 00:08:54;;;;;;;44.35;17.65;;;9.70;99.90;;;;;;5016454;28;20084;-72
2021/12/13 00:11:26;;;;;;;48.05;19.02;;;9.70;99.90;;;;;;5034274;28;20092;-72
2021/12/13 00:14:14;;;;;;;38.50;17.10;;;10.00;99.90;;;;;;5034203;28;20481;-73
2021/12/13 00:16:44;;;;;;;49.75;18.38;;;9.80;99.90;;;;;;5034223;28;20136;-72
2021/12/13 00:19:19;;;;;;;51.42;19.42;;;9.90;99.90;;;;;;5049499;28;20584;-75
2021/12/13 00:21:56;;;;;;;54.33;21.00;;;9.70;99.90;;;;;;5033926;28;20095;-75
2021/12/13 00:24:31;;;;;;;54.80;20.15;;;9.70;99.90;;;;;;5033982;28;20128;-74
2021/12/13 00:27:08;;;;;;;48.10;19.75;;;9.70;99.90;;;;;;5033864;28;20055;-75
2021/12/13 00:30:02;;;;;;;49.35;19.40;;;9.70;99.90;;;;;;5048896;28;20060;-74
2021/12/13 00:32:46;;;;;;;59.25;21.77;;;9.70;99.90;;;;;;5033670;28;20064;-76
2021/12/13 00:35:19;;;;;;;54.70;21.08;;;9.70;99.90;;;;;;5015963;28;20049;-72
2021/12/13 00:37:49;;;;;;;55.33;19.02;;;9.70;99.90;;;;;;5033974;28;20045;-72
2021/12/13 00:40:26;;;;;;;57.65;21.05;;;9.70;99.90;;;;;;5016082;28;20046;-73
2021/12/13 00:43:00;;;;;;;54.45;20.77;;;9.70;99.90;;;;;;5033495;28;20085;-78
2021/12/13 00:45:30;;;;;;;54.90;20.83;;;9.70;99.90;;;;;;5033888;28;20042;-74
2021/12/13 00:48:01;;;;;;;54.85;21.63;;;9.70;99.90;;;;;;5034095;28;20123;-78
2021/12/13 00:50:41;;;;;;;52.13;20.85;;;9.70;99.90;;;;;;5040240;28;20136;-83
2021/12/13 00:53:08;;;;;;;61.83;21.27;;;9.70;99.90;;;;;;5039845;28;20075;-83
2021/12/13 00:55:35;;;;;;;51.75;21.02;;;9.70;99.90;;;;;;5039645;28;20046;-80
2021/12/13 00:58:03;;;;;;;50.13;21.42;;;9.70;99.90;;;;;;5018757;28;20516;-84
2021/12/13 01:00:33;;;;;;;45.63;20.27;;;9.70;99.90;;;;;;4999570;28;20103;-77
2021/12/13 01:03:15;;;;;;;52.17;20.13;;;9.70;99.90;;;;;;5015986;28;20581;-74
2021/12/13 01:05:59;;;;;;;50.53;21.23;;;9.70;99.90;;;;;;5032915;28;20040;-84
2021/12/13 01:09:18;;;;;;;58.88;20.88;;;9.70;99.90;;;;;;5033098;28;20045;-74
2021/12/13 01:11:44;;;;;;;53.03;20.92;;;9.70;99.90;;;;;;5015916;28;20049;-76
2021/12/13 01:14:27;;;;;;;49.65;20.52;;;10.20;99.90;;;;;;5033827;28;20126;-81
2021/12/13 01:17:13;;;;;;;54.20;21.25;;;9.80;99.90;;;;;;5033306;28;20055;-83
2021/12/13 01:20:01;;;;;;;60.22;22.13;;;9.70;99.90;;;;;;5048652;28;20555;-75
2021/12/13 01:22:52;;;;;;;57.47;21.55;;;9.80;99.90;;;;;;5032583;28;20115;-80
2021/12/13 01:28:08;;;;;;;55.03;21.27;;;9.30;99.90;;;;;;5015561;28;20107;-82
2021/12/13 01:30:49;;;;;;;59.33;21.77;;;9.80;99.90;;;;;;5015375;28;20079;-77
2021/12/13 01:33:16;;;;;;;59.85;22.55;;;10.20;99.90;;;;;;5032928;28;20478;-80
2021/12/13 01:35:45;;;;;;;58.15;22.05;;;9.80;99.90;;;;;;5033137;28;20568;-85
2021/12/13 01:38:16;;;;;;;56.85;22.83;;;9.80;99.90;;;;;;5032241;28;20041;-80
2021/12/13 01:40:48;;;;;;;59.92;23.70;;;9.80;99.90;;;;;;5032661;28;20489;-82
2021/12/13 01:43:19;;;;;;;56.10;21.75;;;9.80;99.90;;;;;;5015397;28;20132;-82
2021/12/13 01:45:48;;;;;;;58.95;23.20;;;10.30;99.90;;;;;;5018838;28;20085;-85
2021/12/13 01:48:30;;;;;;;64.50;22.17;;;9.80;99.90;;;;;;5037100;28;20045;-79
2021/12/13 01:51:06;;;;;;;59.85;22.73;;;9.80;99.90;;;;;;5018898;28;20489;-81
2021/12/13 01:53:37;;;;;;;61.58;23.67;;;9.80;99.90;;;;;;5036292;28;20077;-83
2021/12/13 01:56:22;;;;;;;68.75;24.80;;;9.80;99.90;;;;;;5018894;28;20504;-75
2021/12/13 01:58:49;;;;;;;63.38;24.25;;;9.80;99.90;;;;;;5036468;28;20100;-83
2021/12/13 02:01:20;;;;;;;72.00;25.33;;;9.80;99.90;;;;;;5036830;28;20107;-80
2021/12/13 02:04:02;;;;;;;70.07;26.52;;;9.80;99.90;;;;;;5036607;28;20053;-78
2021/12/13 02:06:39;;;;;;;62.92;24.52;;;9.80;99.90;;;;;;5036454;28;20092;-85
2021/12/13 02:09:16;;;;;;;68.88;25.30;;;9.80;99.90;;;;;;5036180;28;20045;-81
2021/12/13 02:11:44;;;;;;;66.05;24.95;;;9.80;99.90;;;;;;5036375;28;20037;-76
2021/12/13 02:14:16;;;;;;;63.67;23.17;;;9.80;99.90;;;;;;5036412;28;20041;-77
2021/12/13 02:17:13;;;;;;;62.17;23.33;;;9.80;99.90;;;;;;5019014;28;20049;-77
2021/12/13 02:19:38;;;;;;;57.22;21.80;;;9.80;99.90;;;;;;4975318;28;20114;-85
2021/12/13 02:22:19;;;;;;;60.42;22.95;;;9.80;99.90;;;;;;4959187;28;20051;-84
2021/12/13 02:24:46;;;;;;;52.35;20.50;;;9.80;99.90;;;;;;4958459;28;20137;-79
2021/12/13 02:27:12;;;;;;;45.38;19.70;;;10.10;99.90;;;;;;4959242;28;20498;-86
2021/12/13 02:29:38;;;;;;;45.90;18.45;;;9.80;99.90;;;;;;4975180;28;20601;-84
2021/12/13 02:32:09;;;;;;;46.75;18.35;;;9.80;99.90;;;;;;4975002;28;20074;-75
2021/12/13 02:34:42;;;;;;;47.03;17.02;;;9.80;99.90;;;;;;4974894;28;20618;-76
2021/12/13 02:37:10;;;;;;;41.72;17.05;;;9.80;99.90;;;;;;4974959;28;20141;-84
2021/12/13 02:39:44;;;;;;;43.95;17.63;;;9.80;99.90;;;;;;4958563;28;20051;-85
2021/12/13 02:42:12;;;;;;;36.45;16.15;;;9.80;99.90;;;;;;4974647;28;20113;-85
2021/12/13 02:44:49;;;;;;;37.67;17.08;;;9.80;99.90;;;;;;4974805;28;20051;-87
2021/12/13 02:47:23;;;;;;;34.20;16.05;;;9.80;99.90;;;;;;4958569;28;20046;-85
2021/12/13 02:49:50;;;;;;;40.05;16.30;;;9.80;99.90;;;;;;4974795;28;20122;-86
2021/12/13 02:52:21;;;;;;;35.10;15.68;;;9.80;99.90;;;;;;4974772;28;20046;-86
2021/12/13 02:54:51;;;;;;;29.25;13.82;;;9.80;99.90;;;;;;4973441;28;20078;-82
2021/12/13 02:57:25;;;;;;;32.78;14.23;;;9.80;99.90;;;;;;5034877;28;20057;-78
2021/12/13 03:00:17;;;;;;;26.02;14.00;;;9.80;99.90;;;;;;5035699;28;20095;-86
2021/12/13 03:02:45;;;;;;;32.35;14.32;;;9.80;99.90;;;;;;4974260;28;20498;-85
2021/12/13 03:05:20;;;;;;;26.85;13.45;;;10.20;99.90;;;;;;4958045;28;20058;-75
2021/12/13 03:07:50;;;;;;;31.77;14.68;;;9.80;99.90;;;;;;4990687;28;20137;-86
2021/12/13 03:10:30;;;;;;;26.40;12.90;;;10.20;99.90;;;;;;4974529;28;20125;-80
2021/12/13 03:12:56;;;;;;;26.92;14.02;;;9.80;99.90;;;;;;4990052;28;20097;-85
2021/12/13 03:15:26;;;;;;;29.60;15.27;;;9.80;99.90;;;;;;4958347;28;20450;-86
2021/12/13 03:17:57;;;;;;;31.88;15.90;;;9.80;99.90;;;;;;4974273;28;20042;-83
2021/12/13 03:20:53;;;;;;;29.13;15.90;;;9.80;99.90;;;;;;4974137;28;20151;-78
2021/12/13 03:23:25;;;;;;;27.55;15.43;;;9.80;99.90;;;;;;4990741;28;20054;-85
2021/12/13 03:26:21;;;;;;;30.92;16.23;;;9.80;99.90;;;;;;4974103;28;20050;-86
2021/12/13 03:29:01;;;;;;;31.27;16.38;;;9.80;99.90;;;;;;4973289;28;20054;-84
2021/12/13 03:31:36;;;;;;;34.47;17.05;;;9.80;99.90;;;;;;4973944;28;20537;-81
2021/12/13 03:34:02;;;;;;;37.85;18.85;;;9.70;99.90;;;;;;4990060;28;20084;-86
2021/12/13 03:36:46;;;;;;;38.22;17.67;;;9.70;99.90;;;;;;4957905;28;20058;-77
2021/12/13 03:39:18;;;;;;;39.72;19.05;;;9.70;99.90;;;;;;4975371;28;20072;-80
2021/12/13 03:41:48;;;;;;;36.95;17.67;;;9.70;99.90;;;;;;5049940;28;20053;-85
2021/12/13 03:44:19;;;;;;;37.83;18.50;;;9.70;99.90;;;;;;5034076;28;20045;-84
2021/12/13 03:46:48;;;;;;;35.45;17.95;;;10.00;99.90;;;;;;5034766;28;20152;-86
2021/12/13 03:49:17;;;;;;;38.15;18.30;;;9.70;99.90;;;;;;5049817;28;20095;-81
2021/12/13 03:51:43;;;;;;;36.08;18.52;;;9.70;99.90;;;;;;5034462;28;20116;-75
2021/12/13 03:54:13;;;;;;;34.95;16.80;;;9.70;99.90;;;;;;5034561;28;20132;-75
2021/12/13 03:56:44;;;;;;;28.98;15.63;;;9.70;99.90;;;;;;5034435;28;20045;-74
2021/12/13 03:59:22;;;;;;;28.80;14.85;;;9.80;99.90;;;;;;5034119;28;20046;-83
2021/12/13 04:01:58;;;;;;;30.35;14.90;;;10.00;99.90;;;;;;5034185;28;20493;-83
2021/12/13 04:04:39;;;;;;;35.58;16.52;;;9.70;99.90;;;;;;5049387;28;20053;-81
2021/12/13 04:07:10;;;;;;;31.63;15.93;;;9.70;99.90;;;;;;5033934;28;20173;-82
2021/12/13 04:09:36;;;;;;;32.63;15.60;;;9.70;99.90;;;;;;5016346;28;20481;-84
2021/12/13 04:12:05;;;;;;;33.88;16.63;;;9.80;99.90;;;;;;5034053;28;20045;-82
2021/12/13 04:14:38;;;;;;;31.08;15.38;;;9.70;99.90;;;;;;5033915;28;20049;-77
2021/12/13 04:17:20;;;;;;;33.97;15.63;;;9.60;99.90;;;;;;5033510;28;20132;-76
2021/12/13 04:19:56;;;;;;;35.03;15.52;;;10.00;99.90;;;;;;5049395;28;20073;-81
2021/12/13 04:22:28;;;;;;;31.13;15.27;;;9.60;99.90;;;;;;5048959;28;20053;-78
2021/12/13 04:25:16;;;;;;;31.35;15.38;;;9.60;99.90;;;;;;5033669;28;20576;-82
2021/12/13 04:27:48;;;;;;;31.23;15.18;;;9.90;99.90;;;;;;5015687;28;20057;-83
2021/12/13 04:30:44;;;;;;;34.43;15.73;;;10.50;99.90;;;;;;5048662;28;20041;-82
2021/12/13 04:33:26;;;;;;;30.65;14.27;;;9.60;99.90;;;;;;5033470;28;20045;-77
2021/12/13 04:36:18;;;;;;;32.53;13.75;;;9.60;99.90;;;;;;5015638;28;20061;-81
2021/12/13 04:38:53;;;;;;;29.42;13.65;;;9.60;99.90;;;;;;5015999;28;20394;-79
2021/12/13 04:41:29;;;;;;;30.40;14.48;;;9.50;99.90;;;;;;5016034;28;20050;-82
2021/12/13 04:44:04;;;;;;;28.30;14.15;;;9.50;99.90;;;;;;5049027;28;20490;-80
2021/12/13 04:46:33;;;;;;;28.48;13.45;;;9.70;99.90;;;;;;5033139;28;20049;-80
2021/12/13 04:49:05;;;;;;;33.45;13.23;;;9.50;99.90;;;;;;5033438;28;20104;-82
2021/12/13 04:51:45;;;;;;;22.45;11.13;;;9.50;99.90;;;;;;5033567;28;20042;-82
2021/12/13 04:54:14;;;;;;;25.70;13.10;;;9.50;99.90;;;;;;5033318;28;20076;-76
2021/12/13 04:56:41;;;;;;;24.05;12.75;;;9.40;99.90;;;;;;5033359;28;20095;-81
2021/12/13 04:59:09;;;;;;;29.50;12.75;;;9.40;99.90;;;;;;5028665;28;20058;-78
2021/12/13 05:01:35;;;;;;;25.67;12.30;;;9.40;99.90;;;;;;4995803;28;20045;-79
2021/12/13 05:04:04;;;;;;;33.35;13.63;;;9.40;99.90;;;;;;4979201;28;20494;-77
2021/12/13 05:06:37;;;;;;;24.17;11.93;;;9.40;99.90;;;;;;5028547;28;20077;-80
2021/12/13 05:09:07;;;;;;;20.60;9.82;;;9.40;99.90;;;;;;5013522;28;20050;-80
2021/12/13 05:11:38;;;;;;;23.23;10.90;;;9.30;99.90;;;;;;5013293;28;20076;-80
2021/12/13 05:14:06;;;;;;;19.00;9.25;;;9.20;99.90;;;;;;5013516;28;20045;-75
2021/12/13 05:16:46;;;;;;;20.90;10.13;;;9.20;99.90;;;;;;5013446;28;20042;-83
2021/12/13 05:19:15;;;;;;;20.92;10.60;;;9.20;99.90;;;;;;5012022;28;20053;-75
2021/12/13 05:21:45;;;;;;;20.83;10.48;;;9.10;99.90;;;;;;5013280;28;20046;-74
2021/12/13 05:24:17;;;;;;;20.50;10.35;;;9.20;99.90;;;;;;5012821;28;20543;-75
2021/12/13 05:27:07;;;;;;;18.73;9.50;;;9.10;99.90;;;;;;5013245;28;20541;-73
2021/12/13 05:29:34;;;;;;;21.08;10.10;;;9.10;99.90;;;;;;5013271;28;20398;-82
2021/12/13 05:32:08;;;;;;;22.30;10.52;;;9.20;99.90;;;;;;5013399;28;20519;-76
2021/12/13 05:34:43;;;;;;;24.58;10.82;;;9.10;99.90;;;;;;5012618;28;20053;-84
2021/12/13 05:37:09;;;;;;;21.98;10.57;;;9.10;99.90;;;;;;4995524;28;20038;-74
2021/12/13 05:39:37;;;;;;;25.42;10.48;;;9.20;99.90;;;;;;5013190;28;20041;-85
2021/12/13 05:42:11;;;;;;;24.70;11.70;;;9.50;99.90;;;;;;5013209;28;20129;-75
2021/12/13 05:44:43;;;;;;;23.52;11.07;;;9.00;99.90;;;;;;4995429;28;20041;-73
2021/12/13 05:47:17;;;;;;;;;;;9.50;99.90;;;;;;5013613;28;20424;-80
2021/12/13 05:49:45;;;;;;;25.90;11.50;;;9.00;99.90;;;;;;5013039;28;19929;-74
2021/12/13 05:52:22;;;;;;;21.83;11.95;;;9.80;99.90;;;;;;5012602;28;20121;-75
2021/12/13 05:54:57;;;;;;;24.75;12.98;;;9.00;99.90;;;;;;5028560;28;20049;-85
2021/12/13 05:57:30;;;;;;;22.95;12.23;;;9.00;99.90;;;;;;5018212;28;20501;-83
2021/12/13 05:59:55;;;;;;;23.52;11.93;;;9.00;99.90;;;;;;5032759;28;20405;-76
2021/12/13 06:02:40;;;;;;;25.10;11.07;;;9.10;99.90;;;;;;5032921;28;20041;-74
2021/12/13 06:05:23;;;;;;;22.17;11.27;;;9.10;99.90;;;;;;5032808;28;20435;-75
2021/12/13 06:08:02;;;;;;;25.83;12.38;;;9.20;99.90;;;;;;5032266;28;20049;-85
2021/12/13 06:10:52;;;;;;;25.05;12.13;;;9.10;99.90;;;;;;5032538;28;20402;-84
2021/12/13 06:13:43;;;;;;;26.88;11.65;;;9.00;99.90;;;;;;5032750;28;20049;-84
2021/12/13 06:16:34;;;;;;;22.95;11.27;;;9.00;99.90;;;;;;5032431;28;20046;-82
2021/12/13 06:19:21;;;;;;;20.60;10.73;;;9.00;99.90;;;;;;4972214;28;20062;-75
2021/12/13 06:21:53;;;;;;;21.88;11.05;;;9.00;99.90;;;;;;4971328;28;20043;-83
2021/12/13 06:24:23;;;;;;;;;;;9.70;99.90;;;;;;4971863;28;20073;-75
2021/12/13 06:26:48;;;;;;;21.95;10.50;;;9.00;99.90;;;;;;4971850;28;19922;-74
2021/12/13 06:29:14;;;;;;;20.42;10.07;;;9.00;99.90;;;;;;4972313;28;20085;-76
2021/12/13 06:31:44;;;;;;;20.42;9.48;;;9.00;99.90;;;;;;4975322;28;20420;-72
2021/12/13 06:34:14;;;;;;;20.00;10.40;;;9.00;99.90;;;;;;4967529;28;20050;-83
2021/12/13 06:36:41;;;;;;;16.15;9.45;;;9.30;99.90;;;;;;4975004;28;20133;-73
2021/12/13 06:39:13;;;;;;;19.08;9.23;;;9.00;99.90;;;;;;4974235;28;20046;-83
2021/12/13 06:41:42;;;;;;;17.80;9.60;;;9.00;99.90;;;;;;4974739;28;20131;-83
2021/12/13 06:44:29;;;;;;;19.00;8.75;;;8.90;99.90;;;;;;4990763;28;20062;-74
2021/12/13 06:47:01;;;;;;;17.60;8.30;;;9.00;99.90;;;;;;4974813;28;20046;-73
2021/12/13 06:49:39;;;;;;;17.63;9.40;;;8.90;99.90;;;;;;4974779;28;20097;-85
2021/12/13 06:52:13;;;;;;;19.02;9.48;;;8.90;99.90;;;;;;4958882;28;20086;-82
2021/12/13 06:54:45;;;;;;;17.50;8.93;;;9.00;99.90;;;;;;4957777;28;20046;-85
2021/12/13 06:57:10;;;;;;;;;;;9.00;99.90;;;;;;5033839;28;20061;-82
2021/12/13 06:59:56;;;;;;;16.65;8.82;;;8.90;99.90;;;;;;5035588;28;19921;-73
2021/12/13 07:02:26;;;;;;;18.85;9.02;;;8.90;99.90;;;;;;5018776;28;20045;-79
2021/12/13 07:05:00;;;;;;;17.48;9.13;;;9.20;99.90;;;;;;5035365;28;20049;-74
2021/12/13 07:07:38;;;;;;;17.25;8.57;;;8.90;99.90;;;;;;5033829;28;20108;-73
2021/12/13 07:10:16;;;;;;;18.23;9.10;;;8.90;99.90;;;;;;5002829;28;20046;-74
2021/12/13 07:12:55;;;;;;;17.70;8.75;;;8.90;99.90;;;;;;5005334;28;20046;-72
2021/12/13 07:15:34;;;;;;;20.98;9.05;;;9.30;99.90;;;;;;5007465;28;20377;-71
2021/12/13 07:18:28;;;;;;;22.05;9.60;;;8.90;99.90;;;;;;5009878;28;20065;-78
2021/12/13 07:21:04;;;;;;;20.45;9.60;;;8.90;99.90;;;;;;5010295;28;20117;-72
2021/12/13 07:23:54;;;;;;;20.55;9.70;;;8.90;99.90;;;;;;5012759;28;20060;-72
2021/12/13 07:26:39;;;;;;;22.88;10.45;;;8.90;99.90;;;;;;5005753;28;20088;-74
2021/12/13 07:29:11;;;;;;;20.05;10.02;;;8.90;99.90;;;;;;4999042;28;20548;-76
2021/12/13 07:31:40;;;;;;;23.05;10.73;;;8.90;99.90;;;;;;5015787;28;20514;-74
2021/12/13 07:34:16;;;;;;;19.88;7.90;;;9.00;99.90;;;;;;5011173;28;20049;-76
2021/12/13 07:36:42;;;;;;;19.33;8.77;;;8.80;99.90;;;;;;5009104;28;20081;-71
2021/12/13 07:39:16;;;;;;;20.52;7.80;;;8.80;99.90;;;;;;5009598;28;20046;-74
2021/12/13 07:41:52;;;;;;;18.88;8.05;;;8.80;99.90;;;;;;5023966;28;20089;-72
2021/12/13 07:44:46;;;;;;;20.40;9.35;;;8.80;99.90;;;;;;5009506;28;20058;-72
2021/12/13 07:47:17;;;;;;;21.73;9.93;;;8.80;99.90;;;;;;4991125;28;20143;-82
2021/12/13 07:49:47;;;;;;;28.40;9.80;;;8.90;99.90;;;;;;5008637;28;20050;-71
2021/12/13 07:52:27;;;;;;;24.95;9.95;;;9.00;99.90;;;;;;5027523;28;20449;-74
2021/12/13 07:54:54;;;;;;;24.77;10.90;;;8.90;99.90;;;;;;4995280;28;20494;-73
2021/12/13 07:57:29;;;;;;;26.70;10.23;;;9.20;99.90;;;;;;5026958;28;20579;-73
2021/12/13 07:59:56;;;;;;;28.00;10.38;;;8.90;99.90;;;;;;4991686;28;20080;-74
2021/12/13 08:02:31;;;;;;;26.02;11.13;;;8.90;99.90;;;;;;4993648;28;20053;-82
2021/12/13 08:05:11;;;;;;;26.13;11.02;;;8.90;99.90;;;;;;4994224;28;20042;-78
2021/12/13 08:07:47;;;;;;;26.67;11.55;;;8.90;99.90;;;;;;5005730;28;20589;-74
2021/12/13 08:10:26;;;;;;;29.15;11.98;;;8.80;99.90;;;;;;5009324;28;20057;-76
2021/12/13 08:13:15;;;;;;;27.08;11.05;;;8.90;99.90;;;;;;5006965;28;20042;-72
2021/12/13 08:15:51;;;;;;;29.08;12.63;;;8.90;99.90;;;;;;4989274;28;20417;-76
2021/12/13 08:18:49;;;;;;;28.90;12.57;;;8.90;99.90;;;;;;5008349;28;20053;-73
2021/12/13 08:21:24;;;;;;;27.70;12.30;;;8.90;99.90;;;;;;4949389;28;20117;-74
2021/12/13 08:23:52;;;;;;;28.45;12.35;;;8.90;99.90;;;;;;4930006;29;20090;-77
2021/12/13 08:26:32;;;;;;;25.58;11.80;;;8.90;99.90;;;;;;4950357;29;20079;-74
2021/12/13 08:29:00;;;;;;;28.70;13.77;;;8.90;99.90;;;;;;4931092;29;20105;-78
2021/12/13 08:31:34;;;;;;;28.77;13.40;;;8.90;99.90;;;;;;4953029;28;20106;-74
2021/12/13 08:34:07;;;;;;;29.38;13.40;;;9.40;99.90;;;;;;4950433;29;20050;-79
2021/12/13 08:36:34;;;;;;;26.13;12.90;;;8.90;99.90;;;;;;4948889;29;20134;-73
2021/12/13 08:39:03;;;;;;;32.13;14.95;;;9.00;99.90;;;;;;4932640;29;20144;-74
2021/12/13 08:41:45;;;;;;;29.05;13.65;;;8.90;99.90;;;;;;4948459;29;20047;-74
2021/12/13 08:44:11;;;;;;;;;;;8.90;99.90;;;;;;4947691;29;20055;-73
2021/12/13 08:46:44;;;;;;;30.48;14.18;;;8.90;99.90;;;;;;4932886;29;19931;-74
2021/12/13 08:49:22;;;;;;;32.55;14.55;;;8.90;99.90;;;;;;4919543;29;20054;-73
2021/12/13 08:52:20;;;;;;;30.80;14.52;;;9.00;99.90;;;;;;4948882;28;20054;-82
2021/12/13 08:54:45;;;;;;;29.70;13.43;;;9.00;99.90;;;;;;4941265;29;20050;-77
2021/12/13 08:57:25;;;;;;;27.15;13.57;;;9.00;99.90;;;;;;4986825;28;20058;-83
2021/12/13 08:59:53;;;;;;;29.33;12.98;;;9.00;99.90;;;;;;5006347;28;20049;-79
2021/12/13 09:02:20;;;;;;;27.83;13.23;;;9.00;99.90;;;;;;5008319;28;20172;-75
2021/12/13 09:05:08;;;;;;;35.95;14.82;;;9.00;99.90;;;;;;4986767;28;20057;-75
2021/12/13 09:07:35;;;;;;;27.88;13.95;;;9.00;99.90;;;;;;5018462;28;20058;-76
2021/12/13 09:10:01;;;;;;;31.58;15.57;;;9.00;99.90;;;;;;5007529;28;20058;-75
2021/12/13 09:12:34;;;;;;;28.65;13.52;;;9.00;99.90;;;;;;5008896;28;20046;-76
2021/12/13 09:15:14;;;;;;;31.30;14.30;;;9.00;99.90;;;;;;5008686;28;20121;-75
2021/12/13 09:17:41;;;;;;;26.15;13.05;;;9.00;99.90;;;;;;5003058;28;20058;-75
2021/12/13 09:20:19;;;;;;;29.98;13.23;;;9.50;99.90;;;;;;5008104;28;20049;-76
2021/12/13 09:23:09;;;;;;;26.63;14.35;;;9.10;99.90;;;;;;5006925;28;20125;-76
2021/12/13 09:25:39;;;;;;;28.15;13.70;;;9.10;99.90;;;;;;5004507;28;20057;-76
2021/12/13 09:28:13;;;;;;;29.27;15.00;;;9.10;99.90;;;;;;5023077;28;20042;-76
2021/12/13 09:30:56;;;;;;;31.08;14.82;;;9.10;99.90;;;;;;4991872;28;20292;-76
2021/12/13 09:33:29;;;;;;;28.95;14.45;;;9.10;99.90;;;;;;5008826;28;20149;-76
2021/12/13 09:36:11;;;;;;;25.38;13.45;;;9.10;99.90;;;;;;4990653;28;20046;-77
2021/12/13 09:38:36;;;;;;;27.90;14.07;;;9.10;99.90;;;;;;5000008;28;20586;-73
2021/12/13 09:41:14;;;;;;;27.58;13.52;;;9.30;99.90;;;;;;5008481;28;20125;-75
2021/12/13 09:43:53;;;;;;;31.73;14.60;;;9.10;99.90;;;;;;5005648;28;20053;-74
2021/12/13 09:46:29;;;;;;;27.00;13.63;;;9.10;99.90;;;;;;5007753;28;20074;-74
2021/12/13 09:48:56;;;;;;;26.02;14.32;;;9.10;99.90;;;;;;5004191;28;20520;-76
2021/12/13 09:51:31;;;;;;;25.33;13.65;;;9.10;99.90;;;;;;5025120;28;20077;-72
2021/12/13 09:54:00;;;;;;;25.05;13.02;;;9.10;99.90;;;;;;5004453;28;20046;-74
2021/12/13 09:56:32;;;;;;;28.40;13.88;;;9.10;99.90;;;;;;5008711;28;20489;-73
2021/12/13 09:59:06;;;;;;;25.33;14.45;;;9.20;99.90;;;;;;5006461;28;20050;-72
2021/12/13 10:01:38;;;;;;;25.67;12.65;;;9.10;99.90;;;;;;5008948;28;20041;-73
2021/12/13 10:04:06;;;;;;;;;;;9.20;99.90;;;;;;5015399;28;20056;-74
2021/12/13 10:06:44;;;;;;;32.47;15.13;;;9.20;99.90;;;;;;5021092;28;19922;-73
2021/12/13 10:09:34;;;;;;;25.05;11.82;;;9.20;99.90;;;;;;5013839;28;20070;-72
2021/12/13 10:12:15;;;;;;;26.42;11.93;;;9.20;99.90;;;;;;5018147;28;20121;-75
2021/12/13 10:14:50;;;;;;;27.88;12.77;;;9.20;99.90;;;;;;5031670;28;20041;-75
2021/12/13 10:17:19;;;;;;;24.10;11.48;;;9.30;99.90;;;;;;5028380;28;20092;-74
2021/12/13 10:19:48;;;;;;;21.95;11.38;;;9.30;99.90;;;;;;5009706;28;20038;-73
2021/12/13 10:22:21;;;;;;;24.55;11.65;;;9.30;99.90;;;;;;5024513;28;20045;-72
2021/12/13 10:24:55;;;;;;;22.27;11.48;;;9.30;99.90;;;;;;5011457;28;20045;-74
2021/12/13 10:27:23;;;;;;;25.17;11.68;;;9.30;99.90;;;;;;5010927;28;20041;-74
2021/12/13 10:29:55;;;;;;;22.67;10.85;;;9.30;99.90;;;;;;5010107;28;20049;-76
2021/12/13 10:32:31;;;;;;;25.15;12.23;;;9.60;99.90;;;;;;5028476;28;20126;-76
2021/12/13 10:35:09;;;;;;;27.10;12.95;;;9.70;99.90;;;;;;5008947;28;20062;-75
2021/12/13 10:37:39;;;;;;;18.88;10.98;;;9.40;99.90;;;;;;5011381;28;20090;-75
2021/12/13 10:40:18;;;;;;;25.88;12.43;;;9.50;99.90;;;;;;5012205;28;20034;-75
2021/12/13 10:43:09;;;;;;;24.25;12.15;;;9.50;99.90;;;;;;5011451;28;20417;-77
2021/12/13 10:45:40;;;;;;;21.08;10.60;;;9.60;99.90;;;;;;5010164;28;20065;-77
2021/12/13 10:48:12;;;;;;;21.70;10.90;;;9.50;99.90;;;;;;5008122;28;20509;-75
2021/12/13 10:50:45;;;;;;;22.73;11.02;;;9.50;99.90;;;;;;4994394;28;20054;-73
2021/12/13 10:53:15;;;;;;;23.02;9.80;;;9.50;99.90;;;;;;5004694;28;20096;-77
2021/12/13 10:55:48;;;;;;;22.90;10.82;;;9.50;99.90;;;;;;5011260;28;20594;-75
2021/12/13 10:58:17;;;;;;;25.52;11.95;;;9.50;99.90;;;;;;5009560;28;20054;-73
2021/12/13 11:00:47;;;;;;;22.83;11.02;;;9.50;99.90;;;;;;5010239;28;20050;-74
2021/12/13 11:03:18;;;;;;;26.15;12.38;;;9.70;99.90;;;;;;5023696;28;20054;-77
2021/12/13 11:05:45;;;;;;;20.88;11.38;;;9.50;99.90;;;;;;5011783;28;20064;-77
2021/12/13 11:08:14;;;;;;;22.00;11.73;;;9.50;99.90;;;;;;5025837;28;20042;-75
2021/12/13 11:10:48;;;;;;;24.92;13.02;;;9.60;99.90;;;;;;4993526;28;20453;-76
2021/12/13 11:13:15;;;;;;;23.83;11.38;;;9.60;99.90;;;;;;5012347;28;20042;-75
2021/12/13 11:15:43;;;;;;;21.38;11.00;;;9.50;99.90;;;;;;5015587;28;20046;-77
2021/12/13 11:18:12;;;;;;;22.52;11.55;;;9.60;99.90;;;;;;5013302;28;20128;-76
2021/12/13 11:20:43;;;;;;;25.30;11.45;;;9.60;99.90;;;;;;5011499;28;20446;-76
2021/12/13 11:23:10;;;;;;;21.60;10.80;;;9.50;99.90;;;;;;4993677;28;20148;-77
2021/12/13 11:25:41;;;;;;;25.50;11.20;;;9.80;99.90;;;;;;5010491;28;20049;-76
2021/12/13 11:28:08;;;;;;;22.27;10.90;;;9.60;99.90;;;;;;5009949;28;20478;-77
2021/12/13 11:30:36;;;;;;;22.08;10.55;;;9.60;99.90;;;;;;5010851;28;20113;-76
2021/12/13 11:33:09;;;;;;;17.17;8.98;;;9.60;99.90;;;;;;5026085;28;20045;-74
2021/12/13 11:36:17;;;;;;;22.77;10.68;;;9.70;99.90;;;;;;5018097;28;20041;-73
2021/12/13 11:39:34;;;;;;;22.50;11.07;;;9.70;99.90;;;;;;4993270;28;20096;-70
2021/12/13 11:42:24;;;;;;;21.05;10.27;;;9.70;99.90;;;;;;4911318;29;20147;-73
2021/12/13 11:45:45;;;;;;;21.00;9.63;;;9.60;99.90;;;;;;4912127;29;20082;-76
2021/12/13 11:48:42;;;;;;;19.98;10.13;;;9.70;99.90;;;;;;4857470;29;20506;-72
2021/12/13 11:51:40;;;;;;;20.35;9.77;;;9.70;99.90;;;;;;4875269;29;20057;-76
2021/12/13 11:54:46;;;;;;;19.83;9.43;;;9.70;99.90;;;;;;4877242;29;20057;-76
2021/12/13 11:57:39;;;;;;;18.42;10.20;;;9.70;99.90;;;;;;4883015;29;20406;-73
2021/12/13 12:00:23;;;;;;;19.27;9.93;;;9.70;99.90;;;;;;4884595;29;20061;-76
2021/12/13 12:03:46;;;;;;;23.30;10.32;;;9.70;99.90;;;;;;4874105;29;20124;-74
2021/12/13 12:06:30;;;;;;;22.23;9.87;;;9.70;99.90;;;;;;4823875;29;20477;-71
2021/12/13 12:09:05;;;;;;;22.90;10.23;;;9.70;99.90;;;;;;4840202;29;20291;-72
2021/12/13 12:11:57;;;;;;;19.17;8.93;;;9.80;99.90;;;;;;4843681;29;20053;-73
2021/12/13 12:14:29;;;;;;;22.67;9.63;;;9.80;99.90;;;;;;4844200;29;20053;-74
2021/12/13 12:16:57;;;;;;;21.75;11.25;;;9.80;99.90;;;;;;4822805;29;20056;-76
2021/12/13 12:19:57;;;;;;;20.83;11.82;;;9.90;99.90;;;;;;4855007;29;20064;-72
2021/12/13 12:22:31;;;;;;;23.77;12.02;;;9.80;99.90;;;;;;4856758;29;20060;-76
2021/12/13 12:24:59;;;;;;;26.75;12.52;;;10.10;99.90;;;;;;4876701;29;20413;-74
2021/12/13 12:27:32;;;;;;;22.55;12.27;;;9.80;99.90;;;;;;4894410;29;20055;-74
2021/12/13 12:30:26;;;;;;;22.33;11.30;;;9.90;99.90;;;;;;4926470;29;20730;-74
2021/12/13 12:32:56;;;;;;;21.75;11.23;;;9.80;99.90;;;;;;4910426;29;20060;-74
2021/12/13 12:35:31;;;;;;;21.10;11.43;;;9.80;99.90;;;;;;4911529;29;20656;-73
2021/12/13 12:38:00;;;;;;;21.50;10.95;;;9.80;99.90;;;;;;4988955;28;20050;-74
2021/12/13 12:40:46;;;;;;;21.08;10.75;;;9.90;99.90;;;;;;5004800;28;20042;-72
2021/12/13 12:43:20;;;;;;;23.90;12.15;;;9.80;99.90;;;;;;5012127;28;20058;-70
2021/12/13 12:45:51;;;;;;;22.08;12.07;;;9.80;99.90;;;;;;5008368;28;20049;-69
2021/12/13 12:48:30;;;;;;;25.73;12.27;;;10.00;99.90;;;;;;5005015;28;20041;-71
2021/12/13 12:51:02;;;;;;;23.17;11.73;;;10.10;99.90;;;;;;5009264;28;20104;-74
2021/12/13 12:53:40;;;;;;;23.88;11.70;;;9.90;99.90;;;;;;5009176;28;20044;-72
2021/12/13 12:56:14;;;;;;;22.30;12.30;;;9.80;99.90;;;;;;5003443;28;20077;-72
2021/12/13 12:58:54;;;;;;;20.30;10.88;;;9.80;99.90;;;;;;5005770;28;20085;-73
2021/12/13 13:01:37;;;;;;;22.42;11.90;;;9.80;99.90;;;;;;5025572;28;20050;-70
2021/12/13 13:04:24;;;;;;;24.10;11.60;;;9.80;99.90;;;;;;5026312;28;20506;-73
2021/12/13 13:07:08;;;;;;;21.75;11.38;;;9.80;99.90;;;;;;5008218;28;20052;-73
2021/12/13 13:10:03;;;;;;;19.80;10.52;;;9.80;99.90;;;;;;5006084;28;20041;-74
2021/12/13 13:12:28;;;;;;;23.98;11.43;;;10.00;99.90;;;;;;4937263;29;20390;-77
2021/12/13 13:15:14;;;;;;;22.85;11.98;;;9.80;99.90;;;;;;4948403;29;20063;-74
2021/12/13 13:17:43;;;;;;;24.52;11.02;;;9.80;99.90;;;;;;4946731;29;20059;-74
2021/12/13 13:20:12;;;;;;;25.15;12.10;;;9.90;99.90;;;;;;4948716;29;20059;-75
2021/12/13 13:22:41;;;;;;;23.58;11.65;;;9.90;99.90;;;;;;4948976;29;20083;-74
2021/12/13 13:25:17;;;;;;;27.13;11.50;;;10.20;99.90;;;;;;4937996;29;20126;-72